Time;durP1;ratioP1;P1;durP2;ratioP2;P2;SDS_P1;SDS_P2;PMS_P1;PMS_P2;Temp;Humidity;BMP_temperature;BMP_pressure;BME280_temperature;BME280_humidity;BME280_pressure;Samples;Min_cycle;Max_cycle;Signal;HPM_P1;HPM_P2
2023/03/10 00:01:56;;;;;;;17.92;9.00;;;;;;;-146.27;100.00;48383.66;5087965;28;20084;-72
2023/03/10 00:04:22;;;;;;;19.63;9.15;;;;;;;-146.27;100.00;48379.66;5089244;28;20093;-72
2023/03/10 00:06:48;;;;;;;20.88;9.88;;;;;;;-146.27;100.00;48391.63;5084904;28;20515;-73
2023/03/10 00:09:13;;;;;;;24.15;10.07;;;;;;;-146.27;100.00;48401.56;5089261;28;20020;-72
2023/03/10 00:11:38;;;;;;;22.98;10.18;;;;;;;-146.27;100.00;48433.44;5094082;28;20054;-72
2023/03/10 00:14:03;;;;;;;19.98;9.80;;;;;;;-146.27;100.00;48427.47;5089059;28;20023;-73
2023/03/10 00:16:29;;;;;;;19.00;10.00;;;;;;;-146.27;100.00;48387.63;5086130;28;20027;-72
2023/03/10 00:18:56;;;;;;;19.73;10.68;;;;;;;-146.27;100.00;48395.59;5092842;28;20020;-73
2023/03/10 00:21:24;;;;;;;21.58;10.05;;;;;;;-146.27;100.00;48411.53;5093598;28;20038;-73
2023/03/10 00:23:51;;;;;;;23.30;10.50;;;;;;;-146.27;100.00;48395.59;5090632;28;20024;-73
2023/03/10 00:26:18;;;;;;;20.83;9.90;;;;;;;-146.27;100.00;48447.38;5082442;28;20060;-73
2023/03/10 00:28:44;;;;;;;22.63;10.70;;;;;;;-146.27;100.00;48419.50;5089688;28;20487;-73
2023/03/10 00:31:12;;;;;;;22.25;11.27;;;;;;;-146.27;100.00;48423.50;5085389;28;20044;-73
2023/03/10 00:33:37;;;;;;;24.20;10.95;;;;;;;-146.27;100.00;48399.59;5080934;28;20498;-73
2023/03/10 00:36:06;;;;;;;19.25;10.50;;;;;;;-146.27;100.00;48383.66;5090083;28;20027;-73
2023/03/10 00:38:32;;;;;;;19.83;10.00;;;;;;;-146.27;100.00;48403.56;5079620;28;20033;-72
2023/03/10 00:41:03;;;;;;;24.70;11.10;;;;;;;-146.27;100.00;48407.56;5091917;28;20048;-73
2023/03/10 00:43:29;;;;;;;19.77;9.93;;;;;;;-146.27;100.00;48407.56;5090651;28;20064;-73
2023/03/10 00:45:55;;;;;;;24.33;11.57;;;;;;;-146.27;100.00;48437.44;5088646;28;20028;-73
2023/03/10 00:48:20;;;;;;;19.38;10.30;;;;;;;-146.27;100.00;48445.41;5077236;28;20056;-72
2023/03/10 00:50:45;;;;;;;20.13;10.32;;;;;;;-146.27;100.00;48407.56;5089281;28;20020;-73
2023/03/10 00:53:11;;;;;;;25.00;11.27;;;;;;;-146.27;100.00;48435.44;5087520;28;20028;-73
2023/03/10 00:55:36;;;;;;;23.52;10.35;;;;;;;-146.27;100.00;48399.59;5091901;28;20031;-73
2023/03/10 00:58:02;;;;;;;26.08;10.85;;;;;;;-146.27;100.00;48373.69;5085877;28;20461;-73
2023/03/10 01:00:27;;;;;;;18.63;9.48;;;;;;;-146.27;100.00;48387.63;5079326;28;20389;-72
2023/03/10 01:02:52;;;;;;;18.73;10.18;;;;;;;-146.27;100.00;48403.56;5089605;28;20152;-72
2023/03/10 01:05:18;;;;;;;21.02;9.93;;;;;;;-146.27;100.00;48407.56;5090154;28;20034;-72
2023/03/10 01:07:44;;;;;;;23.77;10.95;;;;;;;-146.27;100.00;48403.56;5091693;28;20728;-72
2023/03/10 01:10:10;;;;;;;26.23;10.73;;;;;;;-146.27;100.00;48383.66;5090284;28;20024;-72
2023/03/10 01:12:36;;;;;;;24.48;10.68;;;;;;;-146.27;100.00;48431.47;5092491;28;20486;-73
2023/03/10 01:15:01;;;;;;;18.65;9.98;;;;;;;-146.27;100.00;48419.50;5083142;28;20020;-72
2023/03/10 01:17:27;;;;;;;20.58;9.90;;;;;;;-146.27;100.00;48405.56;5090915;28;20051;-72
2023/03/10 01:19:52;;;;;;;24.42;11.20;;;;;;;-146.27;100.00;48423.50;5079847;28;20028;-72
2023/03/10 01:22:17;;;;;;;26.48;10.55;;;;;;;-146.27;100.00;48461.34;5089281;28;20117;-73
2023/03/10 01:24:43;;;;;;;24.55;10.77;;;;;;;-146.27;100.00;48407.56;5089772;28;20024;-72
2023/03/10 01:27:08;;;;;;;22.25;10.05;;;;;;;-146.27;100.00;48397.59;5081042;28;20063;-72
2023/03/10 01:29:34;;;;;;;23.67;10.38;;;;;;;-146.27;100.00;48401.56;5082571;28;20035;-72
2023/03/10 01:31:59;;;;;;;24.45;10.15;;;;;;;-146.27;100.00;48411.53;5082139;28;20037;-72
2023/03/10 01:34:24;;;;;;;23.10;11.27;;;;;;;-146.27;100.00;48449.38;5088442;28;20051;-72
2023/03/10 01:36:50;;;;;;;22.08;10.23;;;;;;;-146.27;100.00;48415.53;5089347;28;20032;-72
2023/03/10 01:39:15;;;;;;;23.52;11.82;;;;;;;-146.27;100.00;48411.53;5089057;28;20464;-72
2023/03/10 01:41:41;;;;;;;20.67;9.98;;;;;;;-146.27;100.00;48395.59;5087358;28;20072;-72
2023/03/10 01:44:14;;;;;;;25.33;10.50;;;;;;;-146.27;100.00;48449.38;5087822;28;20030;-72
2023/03/10 01:46:44;;;;;;;20.92;10.60;;;;;;;-146.27;100.00;48459.34;5083533;28;20472;-72
2023/03/10 01:49:12;;;;;;;23.73;11.57;;;;;;;-146.27;100.00;48407.56;5088648;28;20464;-72
2023/03/10 01:51:40;;;;;;;24.42;10.57;;;;;;;-146.27;100.00;48453.38;5087672;28;20028;-72
2023/03/10 01:54:08;;;;;;;23.38;10.65;;;;;;;-146.27;100.00;48435.44;5086530;28;20020;-72
2023/03/10 01:56:35;;;;;;;20.38;10.00;;;;;;;-146.27;100.00;48419.50;5091811;28;20024;-73
2023/03/10 01:59:01;;;;;;;19.67;10.18;;;;;;;-146.27;100.00;48435.44;5089466;28;20059;-72
2023/03/10 02:01:26;;;;;;;20.27;9.80;;;;;;;-146.27;100.00;48399.59;5087380;28;20068;-72
2023/03/10 02:04:03;;;;;;;22.95;10.90;;;;;;;-146.27;100.00;48415.53;5086784;28;20056;-73
2023/03/10 02:06:31;;;;;;;19.73;10.55;;;;;;;-146.27;100.00;48437.44;5080114;28;20123;-73
2023/03/10 02:08:58;;;;;;;24.52;10.75;;;;;;;-146.27;100.00;48439.41;5074357;28;20455;-72
2023/03/10 02:11:24;;;;;;;20.85;10.40;;;;;;;-146.27;100.00;48403.56;5088784;28;20028;-73
2023/03/10 02:13:50;;;;;;;19.08;10.30;;;;;;;-146.27;100.00;48429.47;5088235;28;20040;-71
2023/03/10 02:16:17;;;;;;;21.02;10.07;;;;;;;-146.27;100.00;48407.56;5087817;28;20043;-71
2023/03/10 02:18:45;;;;;;;19.83;10.30;;;;;;;-146.27;100.00;48399.59;5089041;28;20032;-72
2023/03/10 02:21:26;;;;;;;16.83;9.02;;;;;;;-146.27;100.00;48395.59;5088108;28;20063;-71
2023/03/10 02:24:26;;;;;;;24.13;11.30;;;;;;;-146.27;100.00;48451.38;5080980;28;20020;-73
2023/03/10 02:27:02;;;;;;;19.40;9.90;;;;;;;-146.27;100.00;48401.56;5071711;28;20388;-72
2023/03/10 02:30:08;;;;;;;16.63;9.02;;;;;;;-146.27;100.00;48419.50;5084035;28;20096;-72
2023/03/10 02:32:38;;;;;;;20.60;9.45;;;;;;;-146.27;100.00;48413.53;5086811;28;20081;-72
2023/03/10 02:35:04;;;;;;;18.13;9.15;;;;;;;-146.27;100.00;48403.56;5088055;28;20032;-71
2023/03/10 02:37:33;;;;;;;24.48;9.77;;;;;;;-146.27;100.00;48431.47;5084759;28;20020;-72
2023/03/10 02:39:59;;;;;;;22.50;10.48;;;;;;;-146.27;100.00;48425.47;5081733;28;20024;-72
2023/03/10 02:42:29;;;;;;;19.35;8.63;;;;;;;-146.27;100.00;48437.44;5088314;28;20028;-72
2023/03/10 02:44:54;;;;;;;23.17;11.05;;;;;;;-146.27;100.00;48425.47;5079141;28;20046;-73
2023/03/10 02:47:20;;;;;;;22.75;9.68;;;;;;;-146.27;100.00;48421.50;5090000;28;20497;-72
2023/03/10 02:49:45;;;;;;;19.95;9.80;;;;;;;-146.27;100.00;48435.44;5088389;28;20032;-73
2023/03/10 02:52:22;;;;;;;24.58;9.57;;;;;;;-146.27;100.00;48373.69;5079511;28;20028;-71
2023/03/10 02:54:48;;;;;;;21.98;10.23;;;;;;;-146.27;100.00;48439.41;5089487;28;20024;-73
2023/03/10 02:57:13;;;;;;;19.70;9.85;;;;;;;-146.27;100.00;48427.47;5093164;28;20059;-73
2023/03/10 02:59:38;;;;;;;21.02;10.00;;;;;;;-146.27;100.00;48407.56;5090698;28;20475;-73
2023/03/10 03:02:04;;;;;;;22.98;10.63;;;;;;;-146.27;100.00;48439.41;5088019;28;20906;-72
2023/03/10 03:04:30;;;;;;;20.17;9.15;;;;;;;-146.27;100.00;48383.66;5091352;28;20024;-73
2023/03/10 03:06:56;;;;;;;17.75;9.40;;;;;;;-146.27;100.00;48385.66;5088819;28;20506;-72
2023/03/10 03:09:21;;;;;;;20.23;9.48;;;;;;;-146.27;100.00;48387.63;5091514;28;20028;-72
2023/03/10 03:11:46;;;;;;;19.80;9.85;;;;;;;-146.27;100.00;48405.56;5095561;28;20488;-72
2023/03/10 03:14:12;;;;;;;22.95;9.85;;;;;;;-146.27;100.00;48419.50;5092608;28;20119;-72
2023/03/10 03:16:37;;;;;;;18.90;9.75;;;;;;;-146.27;100.00;48411.53;5094318;28;20048;-72
2023/03/10 03:19:02;;;;;;;23.20;9.23;;;;;;;-146.27;100.00;48431.47;5093839;28;20126;-72
2023/03/10 03:21:28;;;;;;;18.10;9.18;;;;;;;-146.27;100.00;48395.59;5092997;28;20085;-72
2023/03/10 03:23:53;;;;;;;22.25;8.50;;;;;;;-146.27;100.00;48435.44;5084320;28;20036;-72
2023/03/10 03:26:21;;;;;;;22.35;9.98;;;;;;;-146.27;100.00;48439.41;5092575;28;20020;-72
2023/03/10 03:28:46;;;;;;;18.83;9.73;;;;;;;-146.27;100.00;48445.41;5086403;28;20032;-71
2023/03/10 03:31:17;;;;;;;22.23;9.65;;;;;;;-146.27;100.00;48407.56;5090442;28;20027;-73
2023/03/10 03:33:42;;;;;;;22.95;10.40;;;;;;;-146.27;100.00;48419.50;5091317;28;20026;-72
2023/03/10 03:36:08;;;;;;;25.40;10.10;;;;;;;-146.27;100.00;48399.59;5093461;28;20023;-72
2023/03/10 03:38:33;;;;;;;22.13;10.07;;;;;;;-146.27;100.00;48407.56;5087315;28;20367;-71
2023/03/10 03:40:59;;;;;;;22.42;8.98;;;;;;;-146.27;100.00;48421.50;5092559;28;20028;-73
2023/03/10 03:43:26;;;;;;;20.05;9.70;;;;;;;-146.27;100.00;48419.50;5091561;28;20027;-73
2023/03/10 03:45:52;;;;;;;23.40;9.82;;;;;;;-146.27;100.00;48395.59;5093565;28;20052;-72
2023/03/10 03:48:17;;;;;;;22.58;10.00;;;;;;;-146.27;100.00;48411.53;5079186;28;20063;-72
2023/03/10 03:50:42;;;;;;;17.75;9.77;;;;;;;-146.27;100.00;48383.66;5093109;28;20030;-73
2023/03/10 03:53:08;;;;;;;23.25;9.95;;;;;;;-146.27;100.00;48407.56;5092011;28;20028;-73
2023/03/10 03:55:33;;;;;;;20.38;10.10;;;;;;;-146.27;100.00;48391.63;5093659;28;20028;-73
2023/03/10 03:57:58;;;;;;;20.13;8.60;;;;;;;-146.27;100.00;48423.50;5082547;28;20365;-73
2023/03/10 04:00:24;;;;;;;17.65;8.73;;;;;;;-146.27;100.00;48375.69;5090736;28;20659;-73
2023/03/10 04:02:50;;;;;;;20.38;8.82;;;;;;;-146.27;100.00;48435.44;5093565;28;20032;-73
2023/03/10 04:05:15;;;;;;;21.08;8.15;;;;;;;-146.27;100.00;48395.59;5084593;28;20496;-71
2023/03/10 04:07:41;;;;;;;15.48;7.97;;;;;;;-146.27;100.00;48415.53;5089343;28;20143;-73
2023/03/10 04:10:10;;;;;;;22.10;8.50;;;;;;;-146.27;100.00;48435.44;5089104;28;20028;-72
2023/03/10 04:12:36;;;;;;;16.33;7.65;;;;;;;-146.27;100.00;48395.59;5089798;28;20103;-71
2023/03/10 04:15:02;;;;;;;19.55;8.35;;;;;;;-146.27;100.00;48405.56;5093468;28;20035;-73
2023/03/10 04:17:27;;;;;;;25.25;8.27;;;;;;;-146.27;100.00;48425.47;5093465;28;21482;-73
2023/03/10 04:19:53;;;;;;;17.60;8.38;;;;;;;-146.27;100.00;48399.59;5093249;28;20031;-73
2023/03/10 04:22:18;;;;;;;16.60;7.55;;;;;;;-146.27;100.00;48439.41;5089235;28;20020;-72
2023/03/10 04:24:44;;;;;;;15.60;7.38;;;;;;;-146.27;100.00;48429.47;5090836;28;20059;-69
2023/03/10 04:27:10;;;;;;;16.92;8.05;;;;;;;-146.27;100.00;48417.50;5085669;28;20035;-70
2023/03/10 04:29:36;;;;;;;23.42;8.32;;;;;;;-146.27;100.00;48387.63;5092244;28;20020;-68
2023/03/10 04:32:02;;;;;;;18.77;7.80;;;;;;;-146.27;100.00;48399.59;5091468;28;20649;-70
2023/03/10 04:34:27;;;;;;;19.15;7.20;;;;;;;-146.27;100.00;48423.50;5091507;28;20468;-69
2023/03/10 04:36:53;;;;;;;19.40;7.55;;;;;;;-146.27;100.00;48415.53;5089421;28;20028;-70
2023/03/10 04:39:18;;;;;;;18.48;7.15;;;;;;;-146.27;100.00;48407.56;5083101;28;20157;-68
2023/03/10 04:41:43;;;;;;;15.82;7.05;;;;;;;-146.27;100.00;48449.38;5085844;28;20021;-68
2023/03/10 04:44:10;;;;;;;15.07;6.43;;;;;;;-146.27;100.00;48421.50;5085766;28;20024;-69
2023/03/10 04:46:36;;;;;;;19.08;7.63;;;;;;;-146.27;100.00;48411.53;5090380;28;20032;-68
2023/03/10 04:49:01;;;;;;;17.45;7.22;;;;;;;-146.27;100.00;48429.47;5091242;28;20115;-68
2023/03/10 04:51:26;;;;;;;21.63;7.28;;;;;;;-146.27;100.00;48403.56;5093159;28;20027;-68
2023/03/10 04:53:52;;;;;;;17.92;7.82;;;;;;;-146.27;100.00;48433.44;5084748;28;20380;-68
2023/03/10 04:56:18;;;;;;;18.65;7.35;;;;;;;-146.27;100.00;48387.63;5090184;28;20724;-68
2023/03/10 04:58:43;;;;;;;19.95;7.43;;;;;;;-146.27;100.00;48451.38;5084227;28;20089;-70
2023/03/10 05:01:11;;;;;;;23.00;8.50;;;;;;;-146.27;100.00;48423.50;5084576;28;20475;-68
2023/03/10 05:03:36;;;;;;;22.13;7.95;;;;;;;-146.27;100.00;48417.50;5085393;28;20451;-69
2023/03/10 05:06:02;;;;;;;19.48;8.02;;;;;;;-146.27;100.00;48411.53;5089832;28;20036;-70
2023/03/10 05:08:28;;;;;;;17.98;7.53;;;;;;;-146.27;100.00;48391.63;5092084;28;20024;-68
2023/03/10 05:10:53;;;;;;;18.42;8.18;;;;;;;-146.27;100.00;48379.66;5088552;28;20032;-69
2023/03/10 05:13:18;;;;;;;24.15;8.50;;;;;;;-146.27;100.00;48399.59;5079603;28;20032;-69
2023/03/10 05:15:44;;;;;;;22.85;7.78;;;;;;;-146.27;100.00;48403.56;5090296;28;20107;-69
2023/03/10 05:18:11;;;;;;;19.65;8.52;;;;;;;-146.27;100.00;48449.38;5091981;28;20028;-68
2023/03/10 05:20:37;;;;;;;24.83;8.65;;;;;;;-146.27;100.00;48419.50;5087596;28;20027;-69
2023/03/10 05:23:03;;;;;;;23.60;8.43;;;;;;;-146.27;100.00;48443.41;5091288;28;20106;-69
2023/03/10 05:25:28;;;;;;;16.95;7.65;;;;;;;-146.27;100.00;48433.44;5090776;28;20103;-70
2023/03/10 05:27:54;;;;;;;17.05;6.93;;;;;;;-146.27;100.00;48367.72;5076923;28;20060;-68
2023/03/10 05:30:19;;;;;;;17.92;7.38;;;;;;;-146.27;100.00;48443.41;5085787;28;20042;-69
2023/03/10 05:32:44;;;;;;;23.85;7.55;;;;;;;-146.27;100.00;48393.63;5078963;28;20023;-69
2023/03/10 05:35:11;;;;;;;17.77;8.38;;;;;;;-146.27;100.00;48387.63;5087012;28;20491;-69
2023/03/10 05:37:42;;;;;;;22.05;7.22;;;;;;;-146.27;100.00;48421.50;5091457;28;20489;-69
2023/03/10 05:40:11;;;;;;;21.02;8.13;;;;;;;-146.27;100.00;48439.41;5082695;28;20032;-69
2023/03/10 05:42:36;;;;;;;20.60;7.93;;;;;;;-146.27;100.00;48427.47;5077862;28;20020;-69
2023/03/10 05:45:03;;;;;;;20.25;7.38;;;;;;;-146.27;100.00;48437.44;5087674;28;20420;-70
2023/03/10 05:47:29;;;;;;;20.98;7.72;;;;;;;-146.27;100.00;48387.63;5089611;28;20031;-67
2023/03/10 05:49:54;;;;;;;20.70;8.70;;;;;;;-146.27;100.00;48411.53;5080967;28;20040;-69
2023/03/10 05:52:20;;;;;;;19.52;7.45;;;;;;;-146.27;100.00;48423.50;5088248;28;20016;-69
2023/03/10 05:54:45;;;;;;;19.65;7.82;;;;;;;-146.27;100.00;48411.53;5086680;28;20032;-70
2023/03/10 05:57:10;;;;;;;23.45;8.05;;;;;;;-146.27;100.00;48447.38;5092324;28;20063;-69
2023/03/10 05:59:36;;;;;;;22.35;8.23;;;;;;;-146.27;100.00;48399.59;5087605;28;20494;-69
2023/03/10 06:02:01;;;;;;;23.63;7.95;;;;;;;-146.27;100.00;48349.78;5089381;28;20024;-68
2023/03/10 06:04:31;;;;;;;27.02;9.55;;;;;;;-146.27;100.00;48395.59;5090770;28;20687;-70
2023/03/10 06:06:56;;;;;;;17.98;7.15;;;;;;;-146.27;100.00;48407.56;5090180;28;20051;-69
2023/03/10 06:09:22;;;;;;;17.60;7.72;;;;;;;-146.27;100.00;48413.53;5086164;28;20040;-68
2023/03/10 06:11:47;;;;;;;17.25;7.70;;;;;;;-146.27;100.00;48427.47;5088770;28;20435;-68
2023/03/10 06:14:12;;;;;;;20.55;7.60;;;;;;;-146.27;100.00;48413.53;5086859;28;20028;-69
2023/03/10 06:16:38;;;;;;;20.83;8.38;;;;;;;-146.27;100.00;48411.53;5087007;28;20432;-68
2023/03/10 06:19:03;;;;;;;28.25;8.15;;;;;;;-146.27;100.00;48423.50;5088282;28;20105;-70
2023/03/10 06:21:29;;;;;;;29.42;8.50;;;;;;;-146.27;100.00;48437.44;5091358;28;20028;-69
2023/03/10 06:23:54;;;;;;;21.38;7.85;;;;;;;-146.27;100.00;48443.41;5090040;28;20034;-70
2023/03/10 06:26:21;;;;;;;20.35;7.28;;;;;;;-146.27;100.00;48387.63;5091808;28;20059;-69
2023/03/10 06:28:47;;;;;;;36.70;10.02;;;;;;;-146.27;100.00;48419.50;5090436;28;20024;-69
2023/03/10 06:31:18;;;;;;;23.27;8.10;;;;;;;-146.27;100.00;48379.66;5090449;28;20020;-67
2023/03/10 06:33:44;;;;;;;24.73;8.50;;;;;;;-146.27;100.00;48423.50;5085348;28;20043;-70
2023/03/10 06:36:11;;;;;;;37.13;9.30;;;;;;;-146.27;100.00;48451.38;5094233;28;20027;-70
2023/03/10 06:38:37;;;;;;;31.73;8.65;;;;;;;-146.27;100.00;48403.56;5081203;28;20036;-69
2023/03/10 06:41:03;;;;;;;27.77;7.82;;;;;;;-146.27;100.00;48423.50;5088341;28;20084;-71
2023/03/10 06:43:31;;;;;;;29.67;8.88;;;;;;;-146.27;100.00;48397.59;5092924;28;20502;-69
2023/03/10 06:45:56;;;;;;;25.73;7.32;;;;;;;-146.27;100.00;48447.38;5088479;28;20020;-67
2023/03/10 06:48:21;;;;;;;21.70;8.13;;;;;;;-146.27;100.00;48407.56;5093513;28;20105;-68
2023/03/10 06:50:47;;;;;;;21.70;7.15;;;;;;;-146.27;100.00;48439.41;5101358;28;20058;-69
2023/03/10 06:53:14;;;;;;;23.15;7.47;;;;;;;-146.27;100.00;48411.53;5099977;28;20051;-68
2023/03/10 06:55:39;;;;;;;16.63;6.20;;;;;;;-146.27;100.00;48395.59;5091123;28;20085;-69
2023/03/10 06:58:05;;;;;;;19.73;7.15;;;;;;;-146.27;100.00;48381.66;5092888;28;20024;-68
2023/03/10 07:00:31;;;;;;;22.83;6.25;;;;;;;-146.27;100.00;48383.66;5092242;28;20028;-67
2023/03/10 07:02:56;;;;;;;19.75;6.97;;;;;;;-146.27;100.00;48457.34;5092290;28;20077;-69
2023/03/10 07:05:23;;;;;;;17.08;7.28;;;;;;;-146.27;100.00;48387.63;5092222;28;20539;-69
2023/03/10 07:07:49;;;;;;;19.33;6.70;;;;;;;-146.27;100.00;48387.63;5093755;28;20036;-68
2023/03/10 07:10:15;;;;;;;23.40;6.28;;;;;;;-146.27;100.00;48395.59;5090936;28;20024;-69
2023/03/10 07:12:41;;;;;;;30.20;6.45;;;;;;;-146.27;100.00;48405.56;5091743;28;20476;-68
2023/03/10 07:15:07;;;;;;;24.33;6.13;;;;;;;-146.27;100.00;48437.44;5090153;28;20110;-70
2023/03/10 07:17:32;;;;;;;16.73;6.07;;;;;;;-146.27;100.00;48437.44;5092273;28;20030;-69
2023/03/10 07:19:58;;;;;;;16.52;6.10;;;;;;;-146.27;100.00;48375.69;5092326;28;20047;-68
2023/03/10 07:22:23;;;;;;;15.52;6.30;;;;;;;-146.27;100.00;48407.56;5084789;28;20032;-69
2023/03/10 07:24:53;;;;;;;19.58;5.30;;;;;;;-146.27;100.00;48407.56;5109012;28;20027;-70
2023/03/10 07:27:18;;;;;;;15.35;5.85;;;;;;;-146.27;100.00;48409.53;5096545;28;20103;-69
2023/03/10 07:29:43;;;;;;;14.68;5.63;;;;;;;-146.27;100.00;48401.56;5094604;28;20023;-69
2023/03/10 07:32:09;;;;;;;16.00;5.70;;;;;;;-146.27;100.00;48381.66;5097903;28;20107;-69
2023/03/10 07:34:34;;;;;;;15.95;6.22;;;;;;;-146.27;100.00;48439.41;5088259;28;20039;-69
2023/03/10 07:36:59;;;;;;;11.70;5.00;;;;;;;-146.27;100.00;48411.53;5083581;28;20020;-70
2023/03/10 07:39:25;;;;;;;11.80;5.15;;;;;;;-146.27;100.00;48423.50;5093435;28;20028;-68
2023/03/10 07:41:50;;;;;;;16.17;5.20;;;;;;;-146.27;100.00;48395.59;5090665;28;20155;-70
2023/03/10 07:44:16;;;;;;;16.48;4.63;;;;;;;-146.27;100.00;48439.41;5086609;28;20349;-69
2023/03/10 07:46:42;;;;;;;20.15;5.57;;;;;;;-146.27;100.00;48425.47;5090107;28;20024;-70
2023/03/10 07:49:07;;;;;;;11.77;5.28;;;;;;;-146.27;100.00;48395.59;5075059;28;20021;-68
2023/03/10 07:51:33;;;;;;;14.10;4.80;;;;;;;-146.27;100.00;48399.59;5087327;28;20028;-69
2023/03/10 07:53:58;;;;;;;12.95;4.78;;;;;;;-146.27;100.00;48431.47;5094597;28;20028;-70
2023/03/10 07:56:24;;;;;;;17.23;5.35;;;;;;;-146.27;100.00;48371.69;5097275;28;20160;-69
2023/03/10 07:58:49;;;;;;;9.88;4.97;;;;;;;-146.27;100.00;48417.50;5095378;28;20027;-69
2023/03/10 08:01:18;;;;;;;14.10;5.07;;;;;;;-146.27;100.00;48435.44;5096017;28;20132;-69
2023/03/10 08:03:45;;;;;;;13.10;5.68;;;;;;;-146.27;100.00;48351.78;5087732;28;20016;-69
2023/03/10 08:06:19;;;;;;;12.57;5.00;;;;;;;-146.27;100.00;48415.53;5081588;28;20044;-69
2023/03/10 08:08:44;;;;;;;12.40;4.93;;;;;;;-146.27;100.00;48399.59;5074638;28;20020;-68
2023/03/10 08:11:09;;;;;;;12.68;5.28;;;;;;;-146.27;100.00;48439.41;5095860;28;20376;-67
2023/03/10 08:13:36;;;;;;;12.15;4.65;;;;;;;-146.27;100.00;48405.56;5095583;28;20019;-69
2023/03/10 08:16:02;;;;;;;11.43;4.72;;;;;;;-146.27;100.00;48413.53;5089644;28;20020;-70
2023/03/10 08:18:29;;;;;;;12.15;4.70;;;;;;;-146.27;100.00;48403.56;5083385;28;20031;-68
2023/03/10 08:20:55;;;;;;;8.88;4.65;;;;;;;-146.27;100.00;48453.38;5082378;28;20083;-69
2023/03/10 08:23:21;;;;;;;8.35;3.90;;;;;;;-146.27;100.00;48351.78;5075965;28;20047;-69
2023/03/10 08:25:47;;;;;;;11.18;4.43;;;;;;;-146.27;100.00;48409.53;5106876;28;20460;-69
2023/03/10 08:28:12;;;;;;;9.60;4.80;;;;;;;-146.27;100.00;48383.66;5081690;28;20720;-69
2023/03/10 08:30:39;;;;;;;7.88;4.13;;;;;;;-146.27;100.00;48415.53;5081916;28;20494;-68
2023/03/10 08:33:08;;;;;;;7.88;4.00;;;;;;;-146.27;100.00;48421.50;5086105;28;20035;-69
2023/03/10 08:35:35;;;;;;;8.40;3.92;;;;;;;-146.27;100.00;48415.53;5073979;28;20113;-71
2023/03/10 08:38:00;;;;;;;11.10;4.78;;;;;;;-146.27;100.00;48419.50;5087494;28;20046;-69
2023/03/10 08:40:25;;;;;;;7.32;3.22;;;;;;;-146.27;100.00;48415.53;5084186;28;20491;-69
2023/03/10 08:42:51;;;;;;;8.93;3.83;;;;;;;-146.27;100.00;48421.50;5075754;28;20020;-68
2023/03/10 08:45:17;;;;;;;6.07;3.85;;;;;;;-146.27;100.00;48417.50;5078054;28;20114;-69
2023/03/10 08:47:42;;;;;;;9.82;4.28;;;;;;;-146.27;100.00;48409.53;5081826;28;20107;-68
2023/03/10 08:50:10;;;;;;;7.75;3.80;;;;;;;-146.27;100.00;48401.56;5079942;28;20034;-68
2023/03/10 08:52:35;;;;;;;6.55;3.47;;;;;;;-146.27;100.00;48403.56;5086929;28;20043;-69
2023/03/10 08:55:01;;;;;;;6.70;3.85;;;;;;;-146.27;100.00;48417.50;5102782;28;20066;-69
2023/03/10 08:57:26;;;;;;;8.35;3.90;;;;;;;-146.27;100.00;48393.63;5101229;28;20035;-69
2023/03/10 08:59:51;;;;;;;6.90;3.25;;;;;;;-146.27;100.00;48399.59;5093179;28;20020;-69
2023/03/10 09:02:19;;;;;;;5.15;3.25;;;;;;;-146.27;100.00;48433.44;5094707;28;20047;-70
2023/03/10 09:04:44;;;;;;;6.13;3.40;;;;;;;-146.27;100.00;48423.50;5092164;28;20066;-70
2023/03/10 09:07:10;;;;;;;7.03;3.15;;;;;;;-146.27;100.00;48429.47;5092178;28;20040;-70
2023/03/10 09:09:35;;;;;;;11.23;4.18;;;;;;;-146.27;100.00;48439.41;5104568;28;20028;-69
2023/03/10 09:12:00;;;;;;;7.22;3.65;;;;;;;-146.27;100.00;48399.59;5097390;28;20024;-70
2023/03/10 09:14:26;;;;;;;5.57;3.35;;;;;;;-146.27;100.00;48441.41;5092404;28;20032;-70
2023/03/10 09:16:51;;;;;;;5.80;3.28;;;;;;;-146.27;100.00;48415.53;5104818;28;20028;-70
2023/03/10 09:19:17;;;;;;;6.63;3.45;;;;;;;-146.27;100.00;48441.41;5093279;28;20141;-68
2023/03/10 09:21:42;;;;;;;8.20;3.67;;;;;;;-146.27;100.00;48407.56;5093753;28;20076;-70
2023/03/10 09:24:08;;;;;;;7.88;3.08;;;;;;;-146.27;100.00;48403.56;5093322;28;20027;-69
2023/03/10 09:26:33;;;;;;;7.97;3.35;;;;;;;-146.27;100.00;48403.56;5091945;28;20376;-68
2023/03/10 09:29:00;;;;;;;6.82;3.20;;;;;;;-146.27;100.00;48417.50;5093616;28;20024;-67
2023/03/10 09:31:32;;;;;;;5.28;3.13;;;;;;;-146.27;100.00;48395.59;5094943;28;20033;-68
2023/03/10 09:33:58;;;;;;;7.68;2.85;;;;;;;-146.27;100.00;48423.50;5072521;28;20553;-69
2023/03/10 09:36:23;;;;;;;8.00;3.10;;;;;;;-146.27;100.00;48397.59;5092007;28;20058;-69
2023/03/10 09:38:49;;;;;;;5.78;2.90;;;;;;;-146.27;100.00;48417.50;5091852;28;20456;-70
2023/03/10 09:41:33;;;;;;;5.43;2.70;;;;;;;-146.27;100.00;48441.41;5096838;28;20032;-71
2023/03/10 09:44:37;;;;;;;;;;;;;;;-146.27;100.00;48407.56;5083758;28;20511;-69
2023/03/10 09:47:32;;;;;;;3.53;2.40;;;;;;;-146.27;100.00;48413.53;5010822;28;20385;-68
2023/03/10 09:50:08;;;;;;;4.45;2.53;;;;;;;-146.27;100.00;48421.50;5009898;28;20044;-70
2023/03/10 09:52:40;;;;;;;4.72;2.85;;;;;;;-146.27;100.00;48423.50;5068700;28;20055;-68
2023/03/10 09:55:20;;;;;;;5.35;2.95;;;;;;;-146.27;100.00;48425.47;5087265;28;20032;-69
2023/03/10 09:57:51;;;;;;;6.65;3.17;;;;;;;-146.27;100.00;48399.59;5084148;28;20021;-69
2023/03/10 10:00:28;;;;;;;4.28;2.83;;;;;;;-146.27;100.00;48383.66;5095748;28;20026;-68
2023/03/10 10:03:04;;;;;;;5.75;3.10;;;;;;;-146.27;100.00;48403.56;5079686;28;20031;-69
2023/03/10 10:05:32;;;;;;;6.43;3.25;;;;;;;-146.27;100.00;48413.53;5092540;28;20028;-69
2023/03/10 10:08:02;;;;;;;5.50;2.92;;;;;;;-146.27;100.00;48427.47;5098974;28;20093;-69
2023/03/10 10:10:31;;;;;;;6.75;3.10;;;;;;;-146.27;100.00;48423.50;5091606;28;20107;-67
2023/03/10 10:13:10;;;;;;;3.75;2.25;;;;;;;-146.27;100.00;48399.59;5082911;28;20361;-69
2023/03/10 10:15:38;;;;;;;5.50;2.75;;;;;;;-146.27;100.00;48403.56;5082113;28;20528;-68
2023/03/10 10:18:07;;;;;;;7.72;3.13;;;;;;;-146.27;100.00;48391.63;5085391;28;20044;-68
2023/03/10 10:20:38;;;;;;;7.85;2.83;;;;;;;-146.27;100.00;48469.31;5086734;28;20102;-69
2023/03/10 10:23:13;;;;;;;7.05;3.17;;;;;;;-146.27;100.00;48405.56;5096216;28;20085;-70
2023/03/10 10:25:39;;;;;;;5.95;3.13;;;;;;;-146.27;100.00;48429.47;5096110;28;20024;-70
2023/03/10 10:28:22;;;;;;;5.93;3.17;;;;;;;-146.27;100.00;48403.56;5087435;28;20081;-68
2023/03/10 10:30:48;;;;;;;5.43;2.93;;;;;;;-146.27;100.00;48411.53;5101867;28;20043;-68
2023/03/10 10:33:15;;;;;;;7.97;2.95;;;;;;;-146.27;100.00;48393.63;5108241;28;20069;-68
2023/03/10 10:36:01;;;;;;;5.65;2.92;;;;;;;-146.27;100.00;48403.56;5088517;28;20110;-68
2023/03/10 10:38:31;;;;;;;6.00;2.88;;;;;;;-146.27;100.00;48393.63;5088092;28;20035;-67
2023/03/10 10:41:05;;;;;;;3.90;2.30;;;;;;;-146.27;100.00;48421.50;5085915;28;20032;-69
2023/03/10 10:43:39;;;;;;;4.45;2.65;;;;;;;-146.27;100.00;48407.56;5090255;28;20031;-67
2023/03/10 10:46:07;;;;;;;5.32;2.75;;;;;;;-146.27;100.00;48407.56;5093341;28;20024;-68
2023/03/10 10:48:45;;;;;;;7.13;2.80;;;;;;;-146.27;100.00;48411.53;5087407;28;20051;-68
2023/03/10 10:51:28;;;;;;;5.05;2.40;;;;;;;-146.27;100.00;48399.59;5097664;28;20023;-68
2023/03/10 10:54:01;;;;;;;7.93;2.75;;;;;;;-146.27;100.00;48403.56;5083265;28;20024;-68
2023/03/10 10:56:27;;;;;;;7.07;2.72;;;;;;;-146.27;100.00;48451.38;5094241;28;20036;-69
2023/03/10 10:59:02;;;;;;;3.80;2.25;;;;;;;-146.27;100.00;48439.41;5079216;28;20032;-67
2023/03/10 11:02:00;;;;;;;3.67;2.22;;;;;;;-146.27;100.00;48433.44;5087332;28;20078;-68
2023/03/10 11:04:29;;;;;;;4.25;2.35;;;;;;;-146.27;100.00;48445.41;5091650;28;20460;-68